Time;durP1;ratioP1;P1;durP2;ratioP2;P2;SDS_P1;SDS_P2;PMS_P1;PMS_P2;Temp;Humidity;BMP_temperature;BMP_pressure;BME280_temperature;BME280_humidity;BME280_pressure;Samples;Min_cycle;Max_cycle;Signal;HPM_P1;HPM_P2
2023/07/21 00:01:36;;;;;;;1999.90;999.90;;;;;;;19.20;100.00;94847.00;5084023;28;20249;-72
2023/07/21 00:04:03;;;;;;;1999.90;999.90;;;;;;;19.18;100.00;94844.72;5083908;28;20223;-73
2023/07/21 00:06:29;;;;;;;1999.90;999.90;;;;;;;19.19;100.00;94839.91;5084159;28;20180;-74
2023/07/21 00:08:54;;;;;;;1999.90;999.90;;;;;;;19.15;100.00;94844.88;5083953;28;20177;-71
2023/07/21 00:11:20;;;;;;;1999.90;999.90;;;;;;;19.07;100.00;94838.94;5084655;28;20248;-70
2023/07/21 00:13:45;;;;;;;1999.90;999.90;;;;;;;18.99;100.00;94828.69;5083948;28;20181;-70
2023/07/21 00:16:11;;;;;;;1999.90;999.90;;;;;;;18.83;100.00;94823.56;5084447;28;20173;-71
2023/07/21 00:18:36;;;;;;;1999.90;999.90;;;;;;;18.73;100.00;94814.53;5083887;28;20192;-71
2023/07/21 00:21:05;;;;;;;1999.90;999.90;;;;;;;18.66;100.00;94816.88;5083851;28;20165;-71
2023/07/21 00:23:31;;;;;;;1999.90;999.90;;;;;;;18.62;100.00;94805.25;5084223;28;20200;-71
2023/07/21 00:25:57;;;;;;;1999.90;999.90;;;;;;;18.62;100.00;94802.47;5083899;28;20244;-71
2023/07/21 00:28:25;;;;;;;1999.90;999.90;;;;;;;18.64;100.00;94799.97;5083735;28;20172;-71
2023/07/21 00:30:50;;;;;;;1999.90;999.90;;;;;;;18.65;100.00;94796.00;5084684;28;20169;-71
2023/07/21 00:33:16;;;;;;;1999.90;999.90;;;;;;;18.64;100.00;94805.50;5088001;28;20191;-71
2023/07/21 00:35:41;;;;;;;1999.90;999.90;;;;;;;18.65;100.00;94807.81;5087920;28;20241;-70
2023/07/21 00:38:07;;;;;;;1999.90;999.90;;;;;;;18.64;100.00;94806.28;5087862;28;20165;-71
2023/07/21 00:40:38;;;;;;;1999.90;999.90;;;;;;;18.62;100.00;94803.22;5087771;28;20169;-71
2023/07/21 00:43:04;;;;;;;1999.90;999.90;;;;;;;18.65;100.00;94804.31;5087568;28;20203;-71
2023/07/21 00:45:34;;;;;;;1999.90;999.90;;;;;;;18.61;100.00;94792.66;5087571;28;20200;-71
2023/07/21 00:48:03;;;;;;;1999.90;999.90;;;;;;;18.61;100.00;94798.19;5088041;28;20248;-71
2023/07/21 00:50:29;;;;;;;1999.90;999.90;;;;;;;18.64;100.00;94799.97;5087537;28;20240;-70
2023/07/21 00:52:55;;;;;;;1999.90;999.90;;;;;;;18.66;100.00;94797.53;5087558;28;20259;-71
2023/07/21 00:55:21;;;;;;;1999.90;999.90;;;;;;;18.64;100.00;94788.91;5087494;28;20169;-70
2023/07/21 00:57:47;;;;;;;1999.90;999.90;;;;;;;18.48;100.00;94787.34;5087143;28;20252;-71
2023/07/21 01:00:13;;;;;;;1999.90;999.90;;;;;;;18.37;100.00;94775.25;5087284;28;20189;-71
2023/07/21 01:02:39;;;;;;;1999.90;999.90;;;;;;;18.35;100.00;94777.69;5087234;28;20254;-70
2023/07/21 01:05:06;;;;;;;1999.90;999.90;;;;;;;18.29;100.00;94768.50;5087753;28;20172;-71
2023/07/21 01:07:33;;;;;;;1999.90;999.90;;;;;;;18.23;100.00;94759.31;5086976;28;20177;-71
2023/07/21 01:09:58;;;;;;;1999.90;999.90;;;;;;;18.20;100.00;94746.41;5087118;28;20173;-71
2023/07/21 01:12:28;;;;;;;1999.90;999.90;;;;;;;18.19;100.00;94744.88;5087158;28;20172;-70
2023/07/21 01:14:53;;;;;;;1999.90;999.90;;;;;;;18.19;100.00;94742.13;5087458;28;20173;-71
2023/07/21 01:17:20;;;;;;;1999.90;999.90;;;;;;;18.27;100.00;94738.56;5086672;28;20244;-71
2023/07/21 01:19:48;;;;;;;1999.90;999.90;;;;;;;18.32;100.00;94726.09;5087744;28;20237;-70
2023/07/21 01:22:24;;;;;;;1999.90;999.90;;;;;;;18.33;100.00;94724.84;5087329;28;20193;-71
2023/07/21 01:24:49;;;;;;;1999.90;999.90;;;;;;;18.27;100.00;94721.19;5087425;28;20161;-70
2023/07/21 01:27:16;;;;;;;1999.90;999.90;;;;;;;18.19;100.00;94720.00;5086832;28;20236;-71
2023/07/21 01:29:44;;;;;;;1999.90;999.90;;;;;;;18.08;100.00;94703.16;5087296;28;20161;-71
2023/07/21 01:32:12;;;;;;;1999.90;999.90;;;;;;;18.02;100.00;94693.97;5086426;28;20168;-71
2023/07/21 01:34:39;;;;;;;1999.90;999.90;;;;;;;18.05;100.00;94684.75;5086652;28;20165;-71
2023/07/21 01:37:07;;;;;;;1999.90;999.90;;;;;;;18.04;100.00;94681.25;5087130;28;20170;-71
2023/07/21 01:39:35;;;;;;;1999.90;999.90;;;;;;;18.02;100.00;94677.41;5086691;28;20184;-71
2023/07/21 01:42:01;;;;;;;1999.90;999.90;;;;;;;18.00;100.00;94677.91;5086529;28;20161;-71
2023/07/21 01:44:27;;;;;;;1999.90;999.90;;;;;;;17.91;100.00;94677.16;5086553;28;20211;-72
2023/07/21 01:46:53;;;;;;;1999.90;999.90;;;;;;;17.86;100.00;94664.75;5086731;28;20165;-71
2023/07/21 01:49:19;;;;;;;1999.90;999.90;;;;;;;17.92;100.00;94645.53;5086442;28;20248;-71
2023/07/21 01:51:47;;;;;;;1999.90;999.90;;;;;;;18.01;100.00;94639.97;5086455;28;20169;-72
2023/07/21 01:54:28;;;;;;;1999.90;999.90;;;;;;;18.04;100.00;94645.31;5086632;28;20216;-71
2023/07/21 01:56:59;;;;;;;1999.90;999.90;;;;;;;18.07;100.00;94651.91;5086566;28;20177;-71
2023/07/21 01:59:26;;;;;;;1999.90;999.90;;;;;;;18.03;100.00;94654.09;5086421;28;20204;-71
2023/07/21 02:01:54;;;;;;;1999.90;999.90;;;;;;;17.91;100.00;94653.06;5086444;28;20541;-73
2023/07/21 02:04:20;;;;;;;1999.90;999.90;;;;;;;17.89;100.00;94655.50;5086540;28;20165;-71
2023/07/21 02:06:47;;;;;;;1999.90;999.90;;;;;;;17.81;100.00;94656.34;5086411;28;20244;-71
2023/07/21 02:09:12;;;;;;;1999.90;999.90;;;;;;;17.74;100.00;94634.59;5085715;28;20180;-72
2023/07/21 02:11:38;;;;;;;1999.90;999.90;;;;;;;17.71;100.00;94630.75;5086297;28;20197;-72
2023/07/21 02:14:03;;;;;;;1999.90;999.90;;;;;;;17.61;100.00;94620.22;5086510;28;20245;-72
2023/07/21 02:16:29;;;;;;;1999.90;999.90;;;;;;;17.55;100.00;94606.28;5086050;28;20204;-72
2023/07/21 02:18:55;;;;;;;1999.90;999.90;;;;;;;17.57;100.00;94592.00;5086096;28;20161;-72
2023/07/21 02:21:20;;;;;;;1999.90;999.90;;;;;;;17.55;100.00;94583.44;5085877;28;20161;-73
2023/07/21 02:23:46;;;;;;;1999.90;999.90;;;;;;;17.56;100.00;94558.09;5085932;28;20235;-73
2023/07/21 02:26:11;;;;;;;1999.90;999.90;;;;;;;17.60;100.00;94553.19;5086327;28;20168;-73
2023/07/21 02:28:36;;;;;;;1999.90;999.90;;;;;;;17.66;100.00;94558.84;5085664;28;20161;-74
2023/07/21 02:31:03;;;;;;;1999.90;999.90;;;;;;;17.70;100.00;94559.41;5086362;28;20188;-75
2023/07/21 02:33:30;;;;;;;1999.90;999.90;;;;;;;17.69;100.00;94558.66;5085602;28;20184;-72
2023/07/21 02:35:56;;;;;;;1999.90;999.90;;;;;;;17.69;100.00;94560.63;5086100;28;20182;-73
2023/07/21 02:38:21;;;;;;;1999.90;999.90;;;;;;;17.74;100.00;94557.25;5085744;28;20242;-70
2023/07/21 02:40:47;;;;;;;1999.90;999.90;;;;;;;17.75;100.00;94558.75;5085982;28;20169;-72
2023/07/21 02:43:12;;;;;;;1999.90;999.90;;;;;;;17.75;100.00;94553.25;5085246;28;20201;-72
2023/07/21 02:45:38;;;;;;;1999.90;999.90;;;;;;;17.75;100.00;94553.25;5085469;28;20165;-72
2023/07/21 02:48:08;;;;;;;1999.90;999.90;;;;;;;17.75;100.00;94553.25;5085165;28;20165;-72
2023/07/21 02:50:34;;;;;;;1999.90;999.90;;;;;;;17.70;100.00;94545.59;5085729;28;20165;-72
2023/07/21 02:52:59;;;;;;;1999.90;999.90;;;;;;;17.66;100.00;94534.72;5084552;28;20274;-73
2023/07/21 02:55:25;;;;;;;1999.90;999.90;;;;;;;17.62;100.00;94511.25;5085070;28;20176;-72
2023/07/21 02:57:52;;;;;;;1999.90;999.90;;;;;;;17.57;100.00;94496.13;5085312;28;20172;-72
2023/07/21 03:00:18;;;;;;;1999.90;999.90;;;;;;;17.56;100.00;94485.56;5085003;28;20190;-72
2023/07/21 03:02:43;;;;;;;1999.90;999.90;;;;;;;17.58;100.00;94483.06;5085385;28;20227;-73
2023/07/21 03:05:09;;;;;;;1999.90;999.90;;;;;;;17.58;100.00;94478.31;5085714;28;20165;-73
2023/07/21 03:07:36;;;;;;;1999.90;999.90;;;;;;;17.58;100.00;94472.03;5085430;28;20177;-72
2023/07/21 03:10:02;;;;;;;1999.90;999.90;;;;;;;17.54;100.00;94465.91;5084851;28;20166;-73
2023/07/21 03:12:27;;;;;;;1999.90;999.90;;;;;;;17.55;100.00;94450.91;5084725;28;20195;-72
2023/07/21 03:14:52;;;;;;;1999.90;999.90;;;;;;;17.55;100.00;94448.88;5085338;28;20169;-74
2023/07/21 03:17:18;;;;;;;1999.90;999.90;;;;;;;17.53;100.00;94448.59;5084811;28;20166;-73
2023/07/21 03:19:43;;;;;;;1999.90;999.90;;;;;;;17.51;100.00;94450.28;5084804;28;20187;-72
2023/07/21 03:22:08;;;;;;;1999.90;999.90;;;;;;;17.52;100.00;94444.28;5084599;28;20253;-70
2023/07/21 03:24:34;;;;;;;1999.90;999.90;;;;;;;17.54;100.00;94450.13;5084591;28;20227;-72
2023/07/21 03:27:00;;;;;;;1999.90;999.90;;;;;;;17.55;100.00;94450.91;5084570;28;20169;-73
2023/07/21 03:29:25;;;;;;;1999.90;999.90;;;;;;;17.57;100.00;94443.66;5084443;28;20164;-72
2023/07/21 03:31:51;;;;;;;1999.90;999.90;;;;;;;17.57;100.00;94443.66;5084875;28;20244;-73
2023/07/21 03:34:16;;;;;;;1999.90;999.90;;;;;;;17.54;100.00;94452.13;5084894;28;20165;-74
2023/07/21 03:36:41;;;;;;;1999.90;999.90;;;;;;;17.53;100.00;94465.16;5084048;28;20172;-73
2023/07/21 03:39:07;;;;;;;1999.90;999.90;;;;;;;17.51;100.00;94464.09;5084812;28;20169;-72
2023/07/21 03:41:32;;;;;;;1999.90;999.90;;;;;;;17.52;100.00;94462.88;5084750;28;20165;-71
2023/07/21 03:43:58;;;;;;;1999.90;999.90;;;;;;;17.52;100.00;94462.88;5084888;28;20193;-72
2023/07/21 03:46:23;;;;;;;1999.90;999.90;;;;;;;17.52;100.00;94471.16;5083833;28;20253;-70
2023/07/21 03:48:50;;;;;;;1999.90;999.90;;;;;;;17.54;100.00;94474.19;5085031;28;20172;-72
2023/07/21 03:51:15;;;;;;;1999.90;999.90;;;;;;;17.51;100.00;94478.66;5084631;28;20248;-73
2023/07/21 03:53:41;;;;;;;1999.90;999.90;;;;;;;17.55;100.00;94482.00;5083790;28;20216;-73
2023/07/21 03:56:06;;;;;;;1999.90;999.90;;;;;;;17.54;100.00;94488.78;5083963;28;20169;-71
2023/07/21 03:58:32;;;;;;;1999.90;999.90;;;;;;;17.46;100.00;94486.84;5083964;28;20165;-72
2023/07/21 04:00:58;;;;;;;1999.90;999.90;;;;;;;17.42;100.00;94484.25;5083992;28;20252;-72
2023/07/21 04:03:24;;;;;;;1999.90;999.90;;;;;;;17.41;100.00;94484.69;5083905;28;20220;-72
2023/07/21 04:05:51;;;;;;;1999.90;999.90;;;;;;;17.47;100.00;94469.03;5084407;28;20189;-73
2023/07/21 04:08:17;;;;;;;1999.90;999.90;;;;;;;17.54;100.00;94476.97;5084723;28;20165;-72
2023/07/21 04:10:42;;;;;;;1999.90;999.90;;;;;;;17.66;100.00;94464.94;5083946;28;20255;-65
2023/07/21 04:13:08;;;;;;;1999.90;999.90;;;;;;;17.73;100.00;94484.66;5083815;28;20173;-67
2023/07/21 04:15:33;;;;;;;1999.90;999.90;;;;;;;17.71;100.00;94480.84;5084305;28;20172;-66
2023/07/21 04:17:59;;;;;;;1999.90;999.90;;;;;;;17.73;100.00;94478.34;5083802;28;20244;-67
2023/07/21 04:20:24;;;;;;;1999.90;999.90;;;;;;;17.73;100.00;94472.84;5083814;28;20256;-68
2023/07/21 04:22:50;;;;;;;1999.90;999.90;;;;;;;17.68;100.00;94460.47;5083783;28;20193;-65
2023/07/21 04:25:17;;;;;;;1999.90;999.90;;;;;;;17.66;100.00;94467.69;5083660;28;20241;-65
2023/07/21 04:27:45;;;;;;;1999.90;999.90;;;;;;;17.77;100.00;94463.13;5083815;28;20176;-67
2023/07/21 04:30:11;;;;;;;1999.90;999.90;;;;;;;17.93;100.00;94476.53;5083670;28;20233;-64
2023/07/21 04:32:38;;;;;;;1999.90;999.90;;;;;;;18.07;100.00;94497.16;5083608;28;20168;-68
2023/07/21 04:35:05;;;;;;;1999.90;999.90;;;;;;;18.13;100.00;94517.34;5083621;28;20189;-69
2023/07/21 04:37:32;;;;;;;1999.90;999.90;;;;;;;18.14;100.00;94535.47;5083609;28;20172;-70
2023/07/21 04:39:57;;;;;;;1999.90;999.90;;;;;;;18.17;100.00;94540.06;5084011;28;20169;-70
2023/07/21 04:42:23;;;;;;;1999.90;999.90;;;;;;;18.17;100.00;94545.59;5083962;28;20231;-68
2023/07/21 04:44:49;;;;;;;1999.90;999.90;;;;;;;18.28;100.00;94535.50;5083778;28;20166;-68
2023/07/21 04:47:14;;;;;;;1999.90;999.90;;;;;;;18.42;100.00;94550.63;5084263;28;20161;-66
2023/07/21 04:49:39;;;;;;;1999.90;999.90;;;;;;;18.52;100.00;94574.97;5083538;28;20188;-68
2023/07/21 04:52:05;;;;;;;1999.90;999.90;;;;;;;18.60;100.00;94583.63;5083268;28;20280;-68
2023/07/21 04:54:30;;;;;;;1999.90;999.90;;;;;;;18.63;100.00;94588.22;5083942;28;20203;-66
2023/07/21 04:56:56;;;;;;;1999.90;999.90;;;;;;;18.72;100.00;94585.41;5083970;28;20165;-66
2023/07/21 04:59:21;;;;;;;1999.90;999.90;;;;;;;18.81;100.00;94599.13;5083288;28;20189;-68
2023/07/21 05:01:47;;;;;;;1999.90;999.90;;;;;;;18.86;100.00;94601.22;5083368;28;20203;-64
2023/07/21 05:04:14;;;;;;;1999.90;999.90;;;;;;;18.80;100.00;94605.91;5083929;28;20196;-64
2023/07/21 05:06:43;;;;;;;1999.90;999.90;;;;;;;18.77;100.00;94606.84;5083410;28;20173;-63
2023/07/21 05:09:09;;;;;;;1999.90;999.90;;;;;;;18.73;100.00;94609.06;5083232;28;20165;-64
2023/07/21 05:11:35;;;;;;;1999.90;999.90;;;;;;;18.77;100.00;94615.16;5083194;28;20223;-63
2023/07/21 05:14:02;;;;;;;1999.90;999.90;;;;;;;18.77;100.00;94609.63;5083251;28;20164;-63
2023/07/21 05:16:28;;;;;;;1999.90;999.90;;;;;;;18.77;100.00;94609.63;5083773;28;20223;-62
2023/07/21 05:18:53;;;;;;;1999.90;999.90;;;;;;;18.81;100.00;94621.28;5086976;28;20165;-63
2023/07/21 05:21:18;;;;;;;1999.90;999.90;;;;;;;18.81;100.00;94615.72;5086861;28;20175;-64
2023/07/21 05:23:44;;;;;;;1999.90;999.90;;;;;;;18.94;100.00;94635.63;5087205;28;20197;-64
2023/07/21 05:26:11;;;;;;;1999.90;999.90;;;;;;;19.00;100.00;94636.47;5086803;28;20230;-64
2023/07/21 05:28:36;;;;;;;1999.90;999.90;;;;;;;19.08;100.00;94640.38;5087219;28;20165;-63
2023/07/21 05:31:03;;;;;;;1999.90;999.90;;;;;;;19.22;100.00;94645.16;5086638;28;20165;-62
2023/07/21 05:33:29;;;;;;;1999.90;999.90;;;;;;;19.32;100.00;94654.94;5087205;28;20166;-63
2023/07/21 05:36:07;;;;;;;1999.90;999.90;;;;;;;19.42;100.00;94659.16;5086597;28;20230;-64
2023/07/21 05:38:34;;;;;;;1999.90;999.90;;;;;;;19.43;100.00;94660.66;5087050;28;20165;-74
2023/07/21 05:41:00;;;;;;;1999.90;999.90;;;;;;;19.49;100.00;94653.22;5086945;28;20166;-70
2023/07/21 05:43:25;;;;;;;1999.90;999.90;;;;;;;19.54;100.00;94627.59;5086389;28;20193;-74
2023/07/21 05:45:50;;;;;;;1999.90;999.90;;;;;;;19.50;100.00;94604.88;5086473;28;20165;-72
2023/07/21 05:48:16;;;;;;;1999.90;999.90;;;;;;;19.54;100.00;94577.75;5086277;28;20210;-67
2023/07/21 05:50:41;;;;;;;1999.90;999.90;;;;;;;19.54;100.00;94566.66;5086365;28;20267;-69
2023/07/21 05:53:07;;;;;;;1999.90;999.90;;;;;;;19.53;100.00;94570.69;5086129;28;20208;-66
2023/07/21 05:55:32;;;;;;;1999.90;999.90;;;;;;;19.59;100.00;94562.47;5086484;28;20173;-65
2023/07/21 05:57:58;;;;;;;1999.90;999.90;;;;;;;19.78;100.00;94569.28;5086108;28;20219;-65
2023/07/21 06:00:23;;;;;;;1999.90;999.90;;;;;;;19.97;100.00;94560.22;5086544;28;20189;-66
2023/07/21 06:02:48;;;;;;;1999.90;999.90;;;;;;;20.19;100.00;94566.09;5085976;28;20193;-71
2023/07/21 06:05:14;;;;;;;1999.90;999.90;;;;;;;20.43;100.00;94569.41;5085904;28;20176;-68
2023/07/21 06:07:43;;;;;;;1999.90;999.90;;;;;;;20.70;100.00;94588.38;5086229;28;20257;-69
2023/07/21 06:10:10;;;;;;;1999.90;999.90;;;;;;;20.95;100.00;94615.44;5085829;28;20169;-70
2023/07/21 06:12:35;;;;;;;1999.90;999.90;;;;;;;21.30;100.00;94640.25;5085805;28;20178;-70
2023/07/21 06:15:01;;;;;;;1999.90;999.90;;;;;;;21.61;100.00;94659.75;5086272;28;20176;-67
2023/07/21 06:17:26;;;;;;;1999.90;999.90;;;;;;;21.86;100.00;94670.84;5085704;28;20184;-69
2023/07/21 06:19:52;;;;;;;1999.90;999.90;;;;;;;21.86;100.00;94687.53;5086485;28;20240;-68
2023/07/21 06:22:17;;;;;;;1999.90;999.90;;;;;;;21.90;100.00;94679.75;5085489;28;20169;-69
2023/07/21 06:24:44;;;;;;;1999.90;999.90;;;;;;;22.11;100.00;94691.53;5086459;28;20240;-69
2023/07/21 06:27:12;;;;;;;1999.90;999.90;;;;;;;22.19;100.00;94682.22;5086119;28;20177;-68
2023/07/21 06:29:37;;;;;;;1999.90;999.90;;;;;;;22.41;100.00;94693.47;5084247;28;20183;-69
2023/07/21 06:32:03;;;;;;;1999.90;999.90;;;;;;;22.61;100.00;94695.41;5085940;28;20182;-69
2023/07/21 06:34:29;;;;;;;1999.90;999.90;;;;;;;22.95;100.00;94713.03;5085487;28;20180;-70
2023/07/21 06:36:54;;;;;;;1999.90;999.90;;;;;;;23.20;100.00;94706.56;5086168;28;20177;-69
2023/07/21 06:39:22;;;;;;;1999.90;999.90;;;;;;;23.09;100.00;94706.53;5085546;28;20200;-70
2023/07/21 06:41:47;;;;;;;1999.90;999.90;;;;;;;23.42;100.00;94715.03;5085367;28;20173;-69
2023/07/21 06:44:14;;;;;;;1999.90;999.90;;;;;;;23.91;100.00;94720.69;5085379;28;20201;-69
2023/07/21 06:46:39;;;;;;;1999.90;999.90;;;;;;;24.39;100.00;94723.22;5085738;28;20177;-71
2023/07/21 06:49:05;;;;;;;1999.90;999.90;;;;;;;24.96;100.00;94723.41;5085193;28;20233;-70
2023/07/21 06:51:30;;;;;;;1999.90;999.90;;;;;;;25.58;100.00;94727.47;5085123;28;20248;-69
2023/07/21 06:53:55;;;;;;;1999.90;999.90;;;;;;;25.88;100.00;94729.06;5085050;28;20244;-69
2023/07/21 06:56:21;;;;;;;1999.90;999.90;;;;;;;26.07;100.00;94723.63;5085001;28;20188;-70
2023/07/21 06:58:46;;;;;;;1999.90;999.90;;;;;;;25.73;100.00;94728.66;5085156;28;20190;-70
2023/07/21 07:01:11;;;;;;;1999.90;999.90;;;;;;;26.01;100.00;94726.47;5085101;28;20196;-71
2023/07/21 07:03:37;;;;;;;1999.90;999.90;;;;;;;26.77;100.00;94734.75;5084851;28;20205;-70
2023/07/21 07:06:02;;;;;;;1999.90;999.90;;;;;;;27.12;100.00;94743.00;5084943;28;20169;-70
2023/07/21 07:08:28;;;;;;;1999.90;999.90;;;;;;;27.29;100.00;94741.59;5084867;28;20170;-63
2023/07/21 07:10:53;;;;;;;1999.90;999.90;;;;;;;26.50;100.00;94738.53;5085187;28;20179;-63
2023/07/21 07:13:19;;;;;;;1999.90;999.90;;;;;;;27.23;100.00;94738.06;5085438;28;20169;-64
2023/07/21 07:15:53;;;;;;;1999.90;999.90;;;;;;;27.11;100.00;94733.09;5085025;28;20215;-63
2023/07/21 07:18:18;;;;;;;1999.90;999.90;;;;;;;27.13;100.00;94736.88;5085276;28;20168;-63
2023/07/21 07:20:51;;;;;;;1999.90;999.90;;;;;;;27.10;100.00;94740.75;5084529;28;20181;-63
2023/07/21 07:23:17;;;;;;;1999.90;999.90;;;;;;;26.56;100.00;94742.81;5084498;28;20201;-63
2023/07/21 07:25:53;;;;;;;1999.90;999.90;;;;;;;26.31;100.00;94740.47;5084485;28;20253;-64
2023/07/21 07:28:19;;;;;;;1999.90;999.90;;;;;;;25.67;100.00;94735.56;5084413;28;20172;-63
2023/07/21 07:30:46;;;;;;;1999.90;999.90;;;;;;;25.80;100.00;94721.72;5084820;28;20166;-64
2023/07/21 07:33:14;;;;;;;1999.90;999.90;;;;;;;25.27;100.00;94731.41;5084683;28;20244;-63
2023/07/21 07:35:50;;;;;;;1999.90;999.90;;;;;;;25.08;100.00;94736.06;5084367;28;20169;-64
2023/07/21 07:38:23;;;;;;;1999.90;999.90;;;;;;;24.96;100.00;94734.56;5084218;28;20247;-64
2023/07/21 07:40:49;;;;;;;1999.90;999.90;;;;;;;24.72;100.00;94743.53;5084455;28;20245;-64
2023/07/21 07:43:14;;;;;;;1999.90;999.90;;;;;;;24.72;100.00;94751.13;5084107;28;20270;-64
2023/07/21 07:45:40;;;;;;;1999.90;999.90;;;;;;;24.52;100.00;94756.97;5084187;28;20177;-65
2023/07/21 07:48:07;;;;;;;1999.90;999.90;;;;;;;24.16;100.00;94747.63;5084378;28;20176;-64
2023/07/21 07:50:39;;;;;;;1999.90;999.90;;;;;;;24.02;100.00;94754.19;5084542;28;20169;-64
2023/07/21 07:53:08;;;;;;;1999.90;999.90;;;;;;;23.93;100.00;94750.91;5083878;28;20243;-64
2023/07/21 07:55:40;;;;;;;1999.90;999.90;;;;;;;24.02;100.00;94750.63;5084019;28;20180;-64
2023/07/21 07:58:06;;;;;;;1999.90;999.90;;;;;;;24.01;100.00;94760.28;5083813;28;20165;-63
2023/07/21 08:00:35;;;;;;;1999.90;999.90;;;;;;;24.02;100.00;94764.59;5083851;28;20280;-64
2023/07/21 08:03:01;;;;;;;1999.90;999.90;;;;;;;23.82;100.00;94756.44;5084182;28;20338;-70
2023/07/21 08:05:26;;;;;;;1999.90;999.90;;;;;;;23.70;100.00;94766.03;5083924;28;20196;-70
2023/07/21 08:07:51;;;;;;;1999.90;999.90;;;;;;;23.64;100.00;94773.63;5084544;28;20173;-70
2023/07/21 08:10:17;;;;;;;1999.90;999.90;;;;;;;23.52;100.00;94783.22;5083832;28;20170;-70
2023/07/21 08:12:42;;;;;;;1999.90;999.90;;;;;;;23.44;100.00;94782.94;5083693;28;20184;-71
2023/07/21 08:15:08;;;;;;;1999.90;999.90;;;;;;;23.54;100.00;94775.13;5083787;28;20197;-71
2023/07/21 08:17:37;;;;;;;1999.90;999.90;;;;;;;23.43;100.00;94780.66;5083736;28;20173;-73
2023/07/21 08:20:04;;;;;;;1999.90;999.90;;;;;;;23.11;100.00;94765.28;5084260;28;20173;-70
2023/07/21 08:22:29;;;;;;;1999.90;999.90;;;;;;;23.21;100.00;94772.19;5083568;28;20264;-71
2023/07/21 08:24:54;;;;;;;1999.90;999.90;;;;;;;23.01;100.00;94786.28;5084077;28;20199;-70
2023/07/21 08:27:20;;;;;;;1999.90;999.90;;;;;;;23.05;100.00;94789.59;5083636;28;20234;-68
2023/07/21 08:29:46;;;;;;;1999.90;999.90;;;;;;;23.20;100.00;94796.47;5084114;28;20233;-68
2023/07/21 08:32:12;;;;;;;1999.90;999.90;;;;;;;23.26;100.00;94811.25;5083651;28;20180;-70
2023/07/21 08:34:37;;;;;;;1999.90;999.90;;;;;;;23.28;100.00;94813.53;5084172;28;20207;-73
2023/07/21 08:37:03;;;;;;;1999.90;999.90;;;;;;;23.34;100.00;94817.13;5083589;28;20170;-71
2023/07/21 08:39:30;;;;;;;1999.90;999.90;;;;;;;23.26;100.00;94827.19;5083148;28;20182;-71
2023/07/21 08:41:56;;;;;;;1999.90;999.90;;;;;;;23.20;100.00;94823.59;5084079;28;20173;-70
2023/07/21 08:44:23;;;;;;;1999.90;999.90;;;;;;;23.01;100.00;94833.63;5083329;28;20197;-71
2023/07/21 08:46:48;;;;;;;1999.90;999.90;;;;;;;22.95;100.00;94838.41;5083241;28;20223;-70
2023/07/21 08:49:18;;;;;;;1999.90;999.90;;;;;;;23.03;100.00;94856.19;5083866;28;20200;-69
2023/07/21 08:51:43;;;;;;;1999.90;999.90;;;;;;;23.13;100.00;94863.09;5084702;28;20169;-70
2023/07/21 08:54:09;;;;;;;1999.90;999.90;;;;;;;23.16;100.00;94856.53;5087452;28;20280;-70
2023/07/21 08:56:35;;;;;;;1999.90;999.90;;;;;;;23.13;100.00;94857.50;5087842;28;20169;-71
2023/07/21 08:59:00;;;;;;;1999.90;999.90;;;;;;;22.86;100.00;94855.28;5087160;28;20192;-70
2023/07/21 09:01:26;;;;;;;1999.90;999.90;;;;;;;22.94;100.00;94857.13;5087191;28;20169;-76
2023/07/21 09:03:51;;;;;;;1999.90;999.90;;;;;;;23.08;100.00;94861.03;5087748;28;20224;-77
2023/07/21 09:06:17;;;;;;;1999.90;999.90;;;;;;;22.93;100.00;94855.59;5087073;28;20165;-75
2023/07/21 09:08:48;;;;;;;1999.90;999.90;;;;;;;23.17;100.00;94844.09;5087727;28;20188;-72
2023/07/21 09:11:14;;;;;;;1999.90;999.90;;;;;;;23.26;100.00;94853.06;5087589;28;20172;-73
2023/07/21 09:13:40;;;;;;;1999.90;999.90;;;;;;;23.35;100.00;94847.28;5087100;28;20165;-74
2023/07/21 09:16:05;;;;;;;1999.90;999.90;;;;;;;23.46;100.00;94852.13;5086928;28;20169;-72
2023/07/21 09:18:35;;;;;;;1999.90;999.90;;;;;;;23.45;100.00;94840.22;5087016;28;20181;-72
2023/07/21 09:21:00;;;;;;;1999.90;999.90;;;;;;;23.58;100.00;94851.69;5087390;28;20170;-71
2023/07/21 09:23:29;;;;;;;1999.90;999.90;;;;;;;23.32;100.00;94836.34;5086815;28;20266;-71
2023/07/21 09:25:56;;;;;;;1999.90;999.90;;;;;;;23.52;100.00;94839.00;5086455;28;20210;-71
2023/07/21 09:28:39;;;;;;;1999.90;999.90;;;;;;;23.54;100.00;94839.25;5086511;28;20176;-70
2023/07/21 09:31:04;;;;;;;1999.90;999.90;;;;;;;23.76;100.00;94840.09;5087386;28;20177;-72
2023/07/21 09:33:29;;;;;;;1999.90;999.90;;;;;;;24.02;100.00;94828.78;5086700;28;20169;-71
2023/07/21 09:36:15;;;;;;;1999.90;999.90;;;;;;;24.54;100.00;94821.47;5086613;28;20169;-72
2023/07/21 09:38:42;;;;;;;1999.90;999.90;;;;;;;24.91;100.00;94822.00;5086583;28;20173;-70
2023/07/21 09:41:17;;;;;;;1999.90;999.90;;;;;;;24.75;100.00;94819.97;5087004;28;20174;-71
2023/07/21 09:43:43;;;;;;;1999.90;999.90;;;;;;;24.69;100.00;94816.44;5086785;28;20196;-72
2023/07/21 09:46:09;;;;;;;1999.90;999.90;;;;;;;24.31;100.00;94820.72;5086944;28;20210;-71
2023/07/21 09:48:37;;;;;;;1999.90;999.90;;;;;;;24.61;100.00;94810.56;5086431;28;20197;-70
2023/07/21 09:51:07;;;;;;;1999.90;999.90;;;;;;;24.32;100.00;94822.22;5086844;28;20165;-71
2023/07/21 09:53:37;;;;;;;1999.90;999.90;;;;;;;24.93;100.00;94820.22;5085570;28;20288;-71
2023/07/21 09:56:03;;;;;;;1999.90;999.90;;;;;;;25.78;100.00;94814.59;5085293;28;20165;-71
2023/07/21 09:58:30;;;;;;;1999.90;999.90;;;;;;;26.03;100.00;94821.88;5085506;28;20169;-69
2023/07/21 10:01:01;;;;;;;1999.90;999.90;;;;;;;27.15;100.00;94821.25;5085542;28;20176;-69
2023/07/21 10:03:26;;;;;;;1999.90;999.90;;;;;;;27.49;100.00;94824.47;5084861;28;20197;-72
2023/07/21 10:05:52;;;;;;;1999.90;999.90;;;;;;;27.94;100.00;94825.50;5084903;28;20202;-70
2023/07/21 10:08:18;;;;;;;1999.90;999.90;;;;;;;27.78;100.00;94823.63;5085477;28;20191;-72
2023/07/21 10:10:45;;;;;;;1999.90;999.90;;;;;;;27.07;100.00;94830.78;5085066;28;20173;-72
2023/07/21 10:13:11;;;;;;;1999.90;999.90;;;;;;;27.31;100.00;94834.38;5084944;28;20173;-72
2023/07/21 10:15:37;;;;;;;1999.90;999.90;;;;;;;27.49;100.00;94839.28;5084834;28;20232;-71
2023/07/21 10:18:07;;;;;;;1999.90;999.90;;;;;;;27.47;100.00;94841.88;5085318;28;20169;-74
2023/07/21 10:20:45;;;;;;;1999.90;999.90;;;;;;;27.62;100.00;94836.59;5084813;28;20181;-70
2023/07/21 10:23:15;;;;;;;1999.90;999.90;;;;;;;27.36;100.00;94842.00;5084600;28;20226;-70
2023/07/21 10:26:16;;;;;;;1999.90;999.90;;;;;;;27.74;100.00;94843.59;5085179;28;20290;-72
2023/07/21 10:28:44;;;;;;;1999.90;999.90;;;;;;;27.32;100.00;94833.09;5007799;28;20177;-70
2023/07/21 10:31:22;;;;;;;1999.90;999.90;;;;;;;26.96;100.00;94837.25;5069024;28;20173;-69
2023/07/21 10:34:06;;;;;;;1999.90;999.90;;;;;;;27.05;100.00;94848.13;5084495;28;20168;-71
2023/07/21 10:36:53;;;;;;;1999.90;999.90;;;;;;;27.45;100.00;94833.22;5084559;28;20252;-71
2023/07/21 10:39:21;;;;;;;1999.90;999.90;;;;;;;27.98;100.00;94829.50;5084782;28;20188;-71
2023/07/21 10:41:48;;;;;;;1999.90;999.90;;;;;;;28.05;100.00;94828.16;5084445;28;20176;-70
2023/07/21 10:44:14;;;;;;;1999.90;999.90;;;;;;;27.94;100.00;94826.25;5084285;28;20199;-70
2023/07/21 10:46:42;;;;;;;1999.90;999.90;;;;;;;27.85;100.00;94835.06;5085004;28;20165;-71